Time;durP1;ratioP1;P1;durP2;ratioP2;P2;SDS_P1;SDS_P2;PMS_P1;PMS_P2;Temp;Humidity;BMP_temperature;BMP_pressure;BME280_temperature;BME280_humidity;BME280_pressure;Samples;Min_cycle;Max_cycle;Signal;HPM_P1;HPM_P2
2022/11/26 00:01:38;;;;;;;15.15;5.38;;;6.90;99.90;;;;;;5115381;27;20127;-79
2022/11/26 00:04:04;;;;;;;18.88;5.45;;;6.90;99.90;;;;;;5115664;27;20039;-78
2022/11/26 00:06:29;;;;;;;18.20;4.95;;;6.80;99.90;;;;;;5133319;27;20051;-78
2022/11/26 00:08:55;;;;;;;16.40;4.72;;;6.90;99.90;;;;;;5114431;27;20135;-79
2022/11/26 00:11:20;;;;;;;18.70;5.50;;;6.90;99.90;;;;;;5132122;27;20730;-79
2022/11/26 00:13:46;;;;;;;19.05;4.85;;;6.80;99.90;;;;;;5132114;27;20031;-79
2022/11/26 00:16:13;;;;;;;19.42;5.13;;;6.90;99.90;;;;;;5098360;27;20045;-78
2022/11/26 00:18:40;;;;;;;20.15;5.45;;;6.80;99.90;;;;;;5117320;27;20082;-78
2022/11/26 00:21:14;;;;;;;25.33;5.65;;;6.80;99.90;;;;;;5133215;27;20031;-79
2022/11/26 00:23:40;;;;;;;19.55;5.35;;;6.70;99.90;;;;;;5098076;27;20077;-79
2022/11/26 00:26:13;;;;;;;17.80;5.50;;;6.80;99.90;;;;;;5113318;28;20035;-78
2022/11/26 00:28:47;;;;;;;18.67;5.32;;;6.90;99.90;;;;;;5114956;28;20035;-79
2022/11/26 00:31:14;;;;;;;18.20;5.72;;;6.80;99.90;;;;;;5114557;27;20110;-78
2022/11/26 00:33:40;;;;;;;20.35;6.13;;;6.70;99.90;;;;;;5132835;27;20039;-78
2022/11/26 00:36:13;;;;;;;24.42;5.93;;;6.70;99.90;;;;;;5114578;27;20043;-79
2022/11/26 00:38:39;;;;;;;21.88;5.90;;;6.70;99.90;;;;;;5133273;27;20076;-79
2022/11/26 00:41:12;;;;;;;22.83;6.03;;;6.70;99.90;;;;;;5114748;28;20039;-79
2022/11/26 00:43:38;;;;;;;23.67;5.97;;;6.70;99.90;;;;;;5133216;28;20043;-78
2022/11/26 00:46:04;;;;;;;17.75;6.03;;;6.60;99.90;;;;;;5131011;28;20047;-78
2022/11/26 00:48:29;;;;;;;23.48;6.45;;;6.60;99.90;;;;;;5130418;28;20047;-79
2022/11/26 00:50:55;;;;;;;19.35;6.03;;;6.60;99.90;;;;;;5095930;28;20046;-79
2022/11/26 00:53:24;;;;;;;18.63;6.10;;;6.60;99.90;;;;;;5114626;28;20044;-79
2022/11/26 00:55:50;;;;;;;21.13;6.38;;;6.50;99.90;;;;;;5097941;28;20063;-79
2022/11/26 00:58:27;;;;;;;21.08;6.32;;;6.40;99.90;;;;;;5133317;28;20123;-78
2022/11/26 01:00:55;;;;;;;16.90;6.05;;;6.40;99.90;;;;;;5133166;28;20043;-79
2022/11/26 01:03:21;;;;;;;18.42;6.20;;;6.40;99.90;;;;;;5133067;28;20122;-79
2022/11/26 01:05:52;;;;;;;21.27;6.47;;;7.30;99.90;;;;;;5097731;28;20079;-79
2022/11/26 01:08:22;;;;;;;20.38;5.90;;;7.10;99.90;;;;;;5094348;28;20110;-78
2022/11/26 01:10:47;;;;;;;17.88;6.35;;;6.40;99.90;;;;;;5094444;28;20472;-79
2022/11/26 01:13:13;;;;;;;23.77;6.93;;;6.40;99.90;;;;;;5112835;28;20155;-79
2022/11/26 01:15:40;;;;;;;19.83;6.20;;;7.90;99.90;;;;;;5112590;28;20055;-78
2022/11/26 01:18:13;;;;;;;21.23;6.90;;;6.40;99.90;;;;;;5094453;28;20040;-79
2022/11/26 01:20:39;;;;;;;21.83;6.25;;;6.40;99.90;;;;;;5128062;28;20043;-78
2022/11/26 01:23:04;;;;;;;21.98;6.38;;;6.50;99.90;;;;;;5131485;28;20126;-78
2022/11/26 01:25:30;;;;;;;22.50;6.00;;;7.10;99.90;;;;;;5112851;28;20051;-78
2022/11/26 01:27:56;;;;;;;19.90;6.40;;;6.50;99.90;;;;;;5132919;28;20044;-79
2022/11/26 01:30:28;;;;;;;30.40;7.10;;;5.00;99.90;;;;;;5113753;28;20046;-79
2022/11/26 01:32:54;;;;;;;21.52;6.65;;;6.40;99.90;;;;;;5097359;28;20168;-78
2022/11/26 01:35:20;;;;;;;23.20;6.93;;;6.40;99.90;;;;;;5113980;28;20117;-79
2022/11/26 01:37:47;;;;;;;20.02;6.30;;;6.40;99.90;;;;;;5114370;28;20035;-78
2022/11/26 01:40:24;;;;;;;20.48;7.80;;;6.40;99.90;;;;;;5096583;28;20043;-79
2022/11/26 01:42:56;;;;;;;22.27;6.60;;;6.40;99.90;;;;;;5113793;28;20360;-78
2022/11/26 01:45:23;;;;;;;21.35;6.82;;;7.50;99.90;;;;;;5073498;28;20449;-78
2022/11/26 01:47:49;;;;;;;21.42;8.20;;;6.30;99.90;;;;;;5100511;28;20506;-78
2022/11/26 01:50:29;;;;;;;23.58;7.63;;;6.30;99.90;;;;;;5093955;28;20131;-79
2022/11/26 01:52:59;;;;;;;20.70;6.65;;;6.30;99.90;;;;;;5095410;28;20067;-79
2022/11/26 01:55:40;;;;;;;21.33;6.82;;;6.30;99.90;;;;;;5094177;28;20404;-79
2022/11/26 01:58:11;;;;;;;21.67;6.93;;;6.20;99.90;;;;;;5094132;28;20048;-78
2022/11/26 02:00:37;;;;;;;26.58;7.30;;;7.30;99.90;;;;;;5108291;28;20043;-79
2022/11/26 02:03:03;;;;;;;27.60;6.78;;;6.30;99.90;;;;;;5114185;28;20046;-78
2022/11/26 02:05:35;;;;;;;18.48;7.43;;;6.30;99.90;;;;;;5115498;27;20066;-79
2022/11/26 02:08:01;;;;;;;24.48;7.85;;;6.30;99.90;;;;;;5097614;28;20039;-79
2022/11/26 02:10:27;;;;;;;23.63;7.35;;;7.40;99.90;;;;;;5114206;28;20051;-79
2022/11/26 02:12:53;;;;;;;20.05;7.25;;;6.30;99.90;;;;;;5097476;28;20044;-79
2022/11/26 02:15:23;;;;;;;15.85;6.43;;;6.20;99.90;;;;;;5115558;28;20047;-78
2022/11/26 02:18:00;;;;;;;27.67;7.45;;;6.90;99.90;;;;;;5115621;27;20062;-79
2022/11/26 02:20:31;;;;;;;22.60;7.43;;;6.20;99.90;;;;;;5113801;28;20066;-79
2022/11/26 02:23:29;;;;;;;20.33;6.72;;;6.20;99.90;;;;;;5115209;28;20040;-78
2022/11/26 02:26:16;;;;;;;23.25;7.05;;;6.20;99.90;;;;;;5105587;28;20039;-78
2022/11/26 02:28:58;;;;;;;25.50;7.80;;;6.20;99.90;;;;;;5102297;28;20078;-79
2022/11/26 02:31:30;;;;;;;26.73;7.72;;;6.20;99.90;;;;;;5111134;28;20387;-79
2022/11/26 02:34:22;;;;;;;25.38;7.65;;;6.20;99.90;;;;;;5112395;28;20463;-78
2022/11/26 02:37:02;;;;;;;21.58;7.53;;;6.20;99.90;;;;;;5110706;28;20044;-78
2022/11/26 02:39:29;;;;;;;20.38;6.80;;;6.20;99.90;;;;;;5113408;28;20086;-78
2022/11/26 02:41:57;;;;;;;27.13;7.85;;;6.30;99.90;;;;;;5114409;28;20040;-79
2022/11/26 02:44:26;;;;;;;22.65;7.10;;;6.30;99.90;;;;;;5114174;27;20047;-79
2022/11/26 02:46:57;;;;;;;23.60;7.80;;;6.30;99.90;;;;;;5112888;28;20052;-77
2022/11/26 02:49:24;;;;;;;22.38;7.47;;;6.50;99.90;;;;;;5113246;28;20044;-77
2022/11/26 02:51:56;;;;;;;23.50;7.70;;;7.50;99.90;;;;;;5114380;28;20039;-77
2022/11/26 02:54:23;;;;;;;31.10;8.23;;;6.20;99.90;;;;;;5096474;28;20381;-77
2022/11/26 02:56:50;;;;;;;20.33;8.45;;;6.20;99.90;;;;;;5112639;28;20047;-77
2022/11/26 02:59:15;;;;;;;18.38;7.72;;;6.10;99.90;;;;;;5113970;27;20172;-78
2022/11/26 03:01:47;;;;;;;25.13;7.93;;;6.10;99.90;;;;;;5114299;28;20488;-78
2022/11/26 03:04:25;;;;;;;19.75;7.28;;;6.00;99.90;;;;;;5112771;28;20527;-77
2022/11/26 03:06:53;;;;;;;20.00;7.85;;;6.10;99.90;;;;;;5114264;28;20131;-77
2022/11/26 03:09:21;;;;;;;21.75;7.65;;;6.80;99.90;;;;;;5095947;28;20472;-78
2022/11/26 03:11:47;;;;;;;24.77;7.82;;;6.00;99.90;;;;;;5114079;28;20488;-77
2022/11/26 03:14:12;;;;;;;21.80;7.47;;;6.10;99.90;;;;;;5114451;28;20042;-77
2022/11/26 03:16:38;;;;;;;22.50;8.80;;;6.00;99.90;;;;;;5112801;28;20052;-77
2022/11/26 03:19:04;;;;;;;27.17;8.13;;;6.20;99.90;;;;;;5114370;28;20036;-78
2022/11/26 03:21:31;;;;;;;22.77;8.38;;;6.20;99.90;;;;;;5095488;28;20854;-78
2022/11/26 03:23:57;;;;;;;24.48;7.65;;;6.20;99.90;;;;;;5112487;28;20123;-77
2022/11/26 03:26:23;;;;;;;22.05;7.80;;;6.20;99.90;;;;;;5112320;28;20147;-77
2022/11/26 03:28:48;;;;;;;17.98;7.72;;;6.30;99.90;;;;;;5114540;28;20048;-78
2022/11/26 03:31:14;;;;;;;26.45;8.60;;;6.10;99.90;;;;;;5113540;28;20040;-77
2022/11/26 03:33:40;;;;;;;23.10;7.80;;;6.10;99.90;;;;;;5112815;28;20043;-78
2022/11/26 03:36:06;;;;;;;24.38;8.60;;;6.10;99.90;;;;;;5113633;28;20036;-78
2022/11/26 03:38:31;;;;;;;25.42;7.90;;;6.10;99.90;;;;;;5113290;27;20058;-78
2022/11/26 03:41:02;;;;;;;22.65;7.88;;;6.10;99.90;;;;;;5095471;28;20047;-78
2022/11/26 03:43:28;;;;;;;23.10;8.05;;;7.20;99.90;;;;;;5095142;28;20499;-78
2022/11/26 03:45:54;;;;;;;24.80;8.88;;;6.00;99.90;;;;;;5112182;28;20132;-78
2022/11/26 03:48:20;;;;;;;24.23;8.50;;;6.00;99.90;;;;;;5103204;28;20048;-78
2022/11/26 03:50:45;;;;;;;26.08;8.13;;;6.50;99.90;;;;;;5092803;28;20128;-78
2022/11/26 03:53:11;;;;;;;28.17;9.00;;;6.00;99.90;;;;;;5092262;28;20595;-78
2022/11/26 03:55:37;;;;;;;23.80;8.25;;;6.00;99.90;;;;;;5091866;28;20071;-78
2022/11/26 03:58:02;;;;;;;24.63;8.80;;;6.00;99.90;;;;;;5093103;28;20040;-78
2022/11/26 04:00:28;;;;;;;23.10;7.95;;;6.00;99.90;;;;;;5083688;28;20040;-78
2022/11/26 04:02:54;;;;;;;28.98;8.18;;;6.00;99.90;;;;;;5112237;28;20047;-78
2022/11/26 04:05:19;;;;;;;20.35;8.30;;;6.00;99.90;;;;;;5113453;28;20130;-78
2022/11/26 04:07:45;;;;;;;25.65;8.43;;;6.00;99.90;;;;;;5112506;28;20391;-77
2022/11/26 04:10:11;;;;;;;27.40;8.48;;;6.00;99.90;;;;;;5111579;28;20035;-77
2022/11/26 04:12:36;;;;;;;24.92;8.10;;;5.90;99.90;;;;;;5112033;28;20050;-78
2022/11/26 04:15:02;;;;;;;25.05;10.15;;;5.90;99.90;;;;;;5113078;28;20035;-78
2022/11/26 04:17:28;;;;;;;24.95;7.95;;;5.90;99.90;;;;;;5111889;28;20111;-77
2022/11/26 04:19:53;;;;;;;20.63;8.57;;;6.00;99.90;;;;;;5111031;27;20048;-78
2022/11/26 04:22:19;;;;;;;23.83;8.82;;;5.90;99.90;;;;;;5110911;28;20046;-78
2022/11/26 04:24:45;;;;;;;30.98;9.25;;;5.90;99.90;;;;;;5110380;28;20046;-78
2022/11/26 04:27:10;;;;;;;22.77;8.55;;;6.00;99.90;;;;;;5110298;28;20439;-78
2022/11/26 04:29:36;;;;;;;24.85;8.23;;;6.00;99.90;;;;;;5111341;28;20039;-78
2022/11/26 04:32:02;;;;;;;23.70;8.50;;;5.90;99.90;;;;;;5112679;28;20480;-78
2022/11/26 04:34:28;;;;;;;26.20;9.02;;;6.00;99.90;;;;;;5112357;28;20119;-78
2022/11/26 04:36:53;;;;;;;26.15;8.80;;;6.20;99.90;;;;;;5114739;27;20440;-78
2022/11/26 04:39:19;;;;;;;22.15;8.73;;;5.90;99.90;;;;;;5111747;28;20389;-77
2022/11/26 04:41:45;;;;;;;30.13;9.88;;;5.90;99.90;;;;;;5110975;28;20093;-77
2022/11/26 04:44:11;;;;;;;24.50;9.55;;;5.90;99.90;;;;;;5113032;28;20067;-78
2022/11/26 04:46:36;;;;;;;24.17;9.82;;;5.90;99.90;;;;;;5128450;28;20055;-78
2022/11/26 04:49:02;;;;;;;29.33;8.93;;;5.90;99.90;;;;;;5114877;28;20042;-77
2022/11/26 04:51:28;;;;;;;22.25;9.18;;;5.90;99.90;;;;;;5114334;28;20046;-77
2022/11/26 04:53:53;;;;;;;24.23;8.40;;;5.90;99.90;;;;;;5132201;28;20486;-78
2022/11/26 04:56:19;;;;;;;25.90;8.77;;;5.90;99.90;;;;;;5131916;28;20096;-78
2022/11/26 04:58:44;;;;;;;22.38;9.25;;;5.90;99.90;;;;;;5097745;28;20390;-78
2022/11/26 05:01:10;;;;;;;20.67;8.93;;;5.80;99.90;;;;;;5132996;28;20095;-78
2022/11/26 05:03:35;;;;;;;28.60;8.85;;;6.90;99.90;;;;;;5133004;28;20502;-78
2022/11/26 05:06:02;;;;;;;25.15;9.13;;;5.70;99.90;;;;;;5114386;28;20046;-78
2022/11/26 05:08:27;;;;;;;24.13;9.07;;;5.70;99.90;;;;;;5133248;28;20407;-78
2022/11/26 05:10:54;;;;;;;21.23;9.48;;;5.70;99.90;;;;;;5132807;28;20043;-78
2022/11/26 05:13:20;;;;;;;23.17;8.90;;;5.70;99.90;;;;;;5114183;28;20043;-77
2022/11/26 05:15:45;;;;;;;23.48;9.52;;;5.70;99.90;;;;;;5123093;28;20122;-77
2022/11/26 05:18:11;;;;;;;29.92;9.52;;;5.70;99.90;;;;;;5132912;28;20122;-78
2022/11/26 05:20:37;;;;;;;21.60;8.75;;;5.70;99.90;;;;;;5132870;28;20155;-78
2022/11/26 05:23:02;;;;;;;29.10;9.35;;;5.70;99.90;;;;;;5116089;27;20118;-77
2022/11/26 05:25:28;;;;;;;23.90;9.32;;;5.60;99.90;;;;;;5136690;27;20035;-77
2022/11/26 05:27:53;;;;;;;29.90;10.20;;;5.60;99.90;;;;;;5133903;27;20151;-78
2022/11/26 05:30:19;;;;;;;23.35;9.13;;;5.70;99.90;;;;;;5117295;27;20122;-77
2022/11/26 05:32:45;;;;;;;28.30;10.00;;;5.70;99.90;;;;;;5118473;27;20043;-78
2022/11/26 05:35:10;;;;;;;27.35;10.45;;;5.60;99.90;;;;;;5135899;27;20078;-78
2022/11/26 05:37:36;;;;;;;25.70;9.80;;;5.60;99.90;;;;;;5135025;27;20114;-78
2022/11/26 05:40:03;;;;;;;27.08;9.77;;;5.60;99.90;;;;;;5118123;27;20408;-78
2022/11/26 05:42:29;;;;;;;25.08;10.40;;;5.70;99.90;;;;;;5117830;27;20043;-78
2022/11/26 05:44:54;;;;;;;24.25;10.25;;;5.70;99.90;;;;;;5135882;27;20497;-78
2022/11/26 05:47:20;;;;;;;31.17;10.65;;;5.70;99.90;;;;;;5118481;27;20039;-78
2022/11/26 05:49:45;;;;;;;21.30;9.38;;;5.60;99.90;;;;;;5099663;27;20067;-78
2022/11/26 05:52:11;;;;;;;25.45;9.77;;;6.60;99.90;;;;;;5115041;27;20121;-78
2022/11/26 05:54:37;;;;;;;28.73;9.88;;;5.60;99.90;;;;;;5118043;27;20106;-78
2022/11/26 05:57:02;;;;;;;20.38;10.38;;;5.60;99.90;;;;;;5104897;28;20417;-77
2022/11/26 05:59:28;;;;;;;28.17;10.50;;;5.60;99.90;;;;;;5080351;28;20036;-77
2022/11/26 06:01:54;;;;;;;25.10;10.38;;;5.50;99.90;;;;;;5080641;28;20103;-78
2022/11/26 06:04:20;;;;;;;27.30;10.52;;;5.50;99.90;;;;;;5097676;28;20483;-77
2022/11/26 06:06:45;;;;;;;27.67;10.52;;;5.50;99.90;;;;;;5115584;28;20051;-77
2022/11/26 06:09:11;;;;;;;22.98;10.20;;;5.50;99.90;;;;;;5128811;27;20552;-77
2022/11/26 06:11:38;;;;;;;25.02;11.07;;;5.50;99.90;;;;;;5117393;27;20513;-78
2022/11/26 06:14:03;;;;;;;27.10;12.52;;;5.50;99.90;;;;;;5117901;27;20047;-78
2022/11/26 06:16:29;;;;;;;23.15;11.15;;;5.50;99.90;;;;;;5135673;27;20057;-77
2022/11/26 06:18:55;;;;;;;26.92;10.57;;;5.40;99.90;;;;;;5117563;27;20039;-78
2022/11/26 06:21:20;;;;;;;26.73;10.85;;;5.40;99.90;;;;;;5117388;27;20460;-77
2022/11/26 06:23:46;;;;;;;25.27;10.35;;;5.40;99.90;;;;;;5117103;27;20084;-77
2022/11/26 06:26:12;;;;;;;28.77;10.93;;;5.40;99.90;;;;;;5134523;27;20099;-77
2022/11/26 06:28:39;;;;;;;23.77;10.52;;;5.40;99.90;;;;;;5135908;27;20039;-77
2022/11/26 06:31:07;;;;;;;29.25;11.15;;;5.40;99.90;;;;;;5099760;27;20368;-77
2022/11/26 06:33:33;;;;;;;28.13;11.10;;;5.30;99.90;;;;;;5132627;27;20399;-78
2022/11/26 06:36:00;;;;;;;32.75;11.13;;;5.40;99.90;;;;;;5134949;27;20043;-77
2022/11/26 06:38:26;;;;;;;24.50;11.98;;;5.30;99.90;;;;;;5117088;27;20092;-77
2022/11/26 06:40:59;;;;;;;26.38;11.38;;;5.30;99.90;;;;;;5134696;27;20042;-77
2022/11/26 06:43:26;;;;;;;25.40;11.77;;;5.30;99.90;;;;;;5100225;27;20381;-77
2022/11/26 06:45:52;;;;;;;30.00;12.18;;;5.40;99.90;;;;;;5135158;27;20133;-77
2022/11/26 06:48:20;;;;;;;29.17;11.70;;;5.30;99.90;;;;;;5117145;27;20127;-78
2022/11/26 06:50:46;;;;;;;26.60;11.10;;;5.40;99.90;;;;;;5135130;27;20053;-77
2022/11/26 06:53:12;;;;;;;27.70;12.15;;;5.30;99.90;;;;;;5099954;27;20039;-77
2022/11/26 06:55:38;;;;;;;27.75;12.45;;;;;;;;;;5116895;27;20054;-77
2022/11/26 06:58:04;;;;;;;29.40;12.65;;;5.30;99.90;;;;;;5135478;27;20047;-77
2022/11/26 07:00:30;;;;;;;26.40;11.38;;;6.80;99.90;;;;;;5134795;27;20035;-77
2022/11/26 07:02:55;;;;;;;27.52;12.15;;;4.50;99.90;;;;;;5093440;28;20123;-77
2022/11/26 07:05:21;;;;;;;29.40;12.23;;;5.30;99.90;;;;;;5095875;28;20051;-77
2022/11/26 07:07:47;;;;;;;26.52;11.63;;;6.30;99.90;;;;;;5102141;27;20050;-78
2022/11/26 07:10:12;;;;;;;30.98;11.82;;;5.30;99.90;;;;;;5134905;27;20551;-77
2022/11/26 07:12:38;;;;;;;28.77;11.80;;;5.00;99.90;;;;;;5134870;27;20066;-77
2022/11/26 07:15:04;;;;;;;28.35;12.10;;;5.30;99.90;;;;;;5116168;27;20051;-78
2022/11/26 07:17:30;;;;;;;30.80;12.70;;;5.30;99.90;;;;;;5096036;28;20088;-77
2022/11/26 07:19:56;;;;;;;27.05;11.82;;;5.30;99.90;;;;;;5116515;27;20043;-77
2022/11/26 07:22:21;;;;;;;32.70;11.93;;;5.30;99.90;;;;;;5116445;27;20039;-77
2022/11/26 07:24:47;;;;;;;27.45;12.07;;;5.30;99.90;;;;;;5134447;27;20039;-77
2022/11/26 07:27:12;;;;;;;33.95;12.52;;;5.40;99.90;;;;;;5134806;27;20547;-77
2022/11/26 07:29:38;;;;;;;29.33;12.40;;;5.40;99.90;;;;;;5134373;27;20100;-77
2022/11/26 07:32:04;;;;;;;26.98;12.10;;;5.40;99.90;;;;;;5099242;27;20126;-77
2022/11/26 07:34:29;;;;;;;28.15;12.05;;;5.40;99.90;;;;;;5116146;27;20097;-77
2022/11/26 07:36:55;;;;;;;28.00;11.00;;;5.40;99.90;;;;;;5116213;27;20522;-77
2022/11/26 07:39:20;;;;;;;27.23;12.50;;;5.50;99.90;;;;;;5115527;27;20399;-77
2022/11/26 07:41:46;;;;;;;30.20;12.85;;;5.50;99.90;;;;;;5134072;27;20043;-77
2022/11/26 07:44:13;;;;;;;25.80;11.93;;;5.50;99.90;;;;;;5099338;28;20051;-77
2022/11/26 07:46:39;;;;;;;30.30;11.40;;;5.60;99.90;;;;;;5132448;27;20083;-77
2022/11/26 07:49:05;;;;;;;25.52;10.98;;;5.70;99.90;;;;;;5116111;27;20043;-77
2022/11/26 07:51:31;;;;;;;30.48;11.20;;;5.80;99.90;;;;;;5083161;28;20055;-77
2022/11/26 07:54:01;;;;;;;27.52;11.35;;;5.80;99.90;;;;;;5095487;28;20088;-78
2022/11/26 07:56:27;;;;;;;27.02;11.52;;;5.80;99.90;;;;;;5095220;28;20097;-77
2022/11/26 07:58:52;;;;;;;28.55;11.07;;;5.80;99.90;;;;;;5090505;27;20085;-77
2022/11/26 08:01:25;;;;;;;21.48;10.90;;;6.30;99.90;;;;;;5098581;27;20043;-77
2022/11/26 08:03:52;;;;;;;26.48;10.68;;;5.80;99.90;;;;;;5098509;27;20095;-77
2022/11/26 08:06:25;;;;;;;24.23;11.63;;;5.90;99.90;;;;;;5115163;27;20050;-77
2022/11/26 08:08:51;;;;;;;26.10;11.52;;;5.90;99.90;;;;;;5115548;27;20053;-77
2022/11/26 08:11:25;;;;;;;27.02;11.45;;;5.90;99.90;;;;;;5114737;27;20130;-77
2022/11/26 08:13:57;;;;;;;28.23;11.73;;;5.90;99.90;;;;;;5098040;27;20045;-77
2022/11/26 08:16:23;;;;;;;30.17;11.32;;;7.20;99.90;;;;;;5115499;27;20066;-77
2022/11/26 08:18:56;;;;;;;24.58;10.98;;;6.10;99.90;;;;;;5133504;27;20491;-77
2022/11/26 08:21:22;;;;;;;29.98;10.63;;;6.20;99.90;;;;;;5132820;27;20035;-76
2022/11/26 08:23:49;;;;;;;23.40;10.15;;;6.30;99.90;;;;;;5096610;27;20039;-77
2022/11/26 08:26:15;;;;;;;21.38;9.82;;;6.40;99.90;;;;;;5114298;27;20483;-78
2022/11/26 08:28:42;;;;;;;16.58;7.20;;;6.40;99.90;;;;;;5133557;27;20031;-77
2022/11/26 08:31:09;;;;;;;22.95;9.88;;;7.70;99.90;;;;;;5098020;27;20047;-78
2022/11/26 08:33:36;;;;;;;18.23;8.80;;;6.50;99.90;;;;;;5114490;27;21826;-79
2022/11/26 08:36:02;;;;;;;25.77;9.88;;;6.50;99.90;;;;;;5113880;27;20047;-79
2022/11/26 08:38:29;;;;;;;16.52;9.27;;;6.60;99.90;;;;;;5132909;27;20043;-79
2022/11/26 08:40:59;;;;;;;22.95;10.30;;;6.60;99.90;;;;;;5114675;28;20039;-79
2022/11/26 08:43:25;;;;;;;23.75;9.82;;;7.10;99.90;;;;;;5114423;28;20166;-77
2022/11/26 08:45:55;;;;;;;17.50;9.68;;;7.30;99.90;;;;;;5133077;28;20146;-80
2022/11/26 08:48:22;;;;;;;25.60;9.55;;;6.90;99.90;;;;;;5131791;28;20420;-80
2022/11/26 08:50:48;;;;;;;20.65;9.30;;;7.80;99.90;;;;;;5133323;28;20509;-80
2022/11/26 08:53:14;;;;;;;22.42;9.57;;;7.00;99.90;;;;;;5133317;28;20099;-80
2022/11/26 08:55:40;;;;;;;28.98;8.93;;;7.80;99.90;;;;;;5114428;28;20125;-80
2022/11/26 08:58:05;;;;;;;21.40;9.35;;;7.20;99.90;;;;;;5135087;27;20519;-79
2022/11/26 09:00:31;;;;;;;17.48;8.10;;;7.40;99.90;;;;;;5116457;27;20498;-79
2022/11/26 09:02:57;;;;;;;20.40;8.45;;;8.40;99.90;;;;;;5136522;27;20035;-79
2022/11/26 09:05:23;;;;;;;23.13;8.60;;;7.70;99.90;;;;;;5118806;27;20095;-78
2022/11/26 09:07:48;;;;;;;18.40;8.05;;;8.30;99.90;;;;;;5137408;27;20103;-78
2022/11/26 09:10:14;;;;;;;22.00;8.75;;;8.10;99.90;;;;;;5117661;27;20043;-78
2022/11/26 09:12:39;;;;;;;22.15;7.63;;;8.20;99.90;;;;;;5115612;27;20034;-77
2022/11/26 09:15:06;;;;;;;21.77;7.85;;;8.40;99.90;;;;;;5124040;27;20093;-78
2022/11/26 09:17:31;;;;;;;22.33;8.10;;;8.50;99.90;;;;;;5114848;28;20039;-78
2022/11/26 09:19:57;;;;;;;18.30;7.63;;;8.70;99.90;;;;;;5114612;28;20051;-78
2022/11/26 09:22:23;;;;;;;18.70;7.38;;;8.80;99.90;;;;;;5114317;28;20054;-78
2022/11/26 09:24:48;;;;;;;16.25;7.43;;;9.90;99.90;;;;;;5096157;28;20039;-78
2022/11/26 09:27:14;;;;;;;15.85;7.28;;;9.10;99.90;;;;;;5114335;28;20087;-78
2022/11/26 09:29:39;;;;;;;20.02;7.25;;;10.10;99.90;;;;;;5097904;28;20043;-78
2022/11/26 09:32:08;;;;;;;20.15;7.78;;;9.30;99.90;;;;;;5097981;28;20179;-78
2022/11/26 09:34:34;;;;;;;16.40;6.85;;;9.20;99.90;;;;;;5096010;28;20075;-78
2022/11/26 09:36:59;;;;;;;18.20;7.53;;;9.30;99.90;;;;;;5116186;28;20067;-78
2022/11/26 09:39:25;;;;;;;19.17;6.97;;;9.30;99.90;;;;;;5097782;28;20088;-78
2022/11/26 09:41:59;;;;;;;16.25;6.53;;;9.30;99.90;;;;;;5097482;28;20079;-78
2022/11/26 09:44:39;;;;;;;21.35;7.20;;;9.30;99.90;;;;;;5115473;28;20372;-78
2022/11/26 09:47:10;;;;;;;15.88;7.47;;;9.30;99.90;;;;;;5096470;28;20059;-78
2022/11/26 09:49:39;;;;;;;19.08;7.18;;;9.40;99.90;;;;;;5116159;28;20056;-78
2022/11/26 09:52:08;;;;;;;17.70;6.75;;;10.10;99.90;;;;;;5063800;28;20048;-78
2022/11/26 09:54:34;;;;;;;20.02;7.97;;;9.50;99.90;;;;;;5080729;28;20047;-80
2022/11/26 09:57:16;;;;;;;18.80;7.20;;;10.90;99.90;;;;;;5115608;28;20055;-78
2022/11/26 09:59:45;;;;;;;20.05;7.03;;;9.70;99.90;;;;;;5115609;28;20046;-79
2022/11/26 10:02:12;;;;;;;18.33;7.20;;;;;;;;;;5115659;28;20035;-80
2022/11/26 10:04:39;;;;;;;16.80;7.30;;;;;;;;;;5097436;28;20047;-80
2022/11/26 10:07:22;;;;;;;19.52;7.35;;;9.80;99.90;;;;;;5100783;27;20031;-82
2022/11/26 10:09:57;;;;;;;17.02;6.70;;;10.00;99.90;;;;;;5135275;27;20133;-79
2022/11/26 10:12:55;;;;;;;20.45;7.30;;;10.00;99.90;;;;;;5117666;27;20047;-79
2022/11/26 10:15:37;;;;;;;15.38;6.85;;;9.90;99.90;;;;;;5100174;27;20050;-79
2022/11/26 10:18:28;;;;;;;16.70;6.93;;;9.80;99.90;;;;;;5117832;27;20043;-79
2022/11/26 10:21:02;;;;;;;16.88;7.43;;;10.50;99.90;;;;;;5134848;27;20095;-79
2022/11/26 10:24:04;;;;;;;17.25;7.70;;;9.60;99.90;;;;;;5135938;27;20086;-79
2022/11/26 10:26:38;;;;;;;19.67;7.80;;;9.50;99.90;;;;;;5054995;28;20468;-79
2022/11/26 10:29:21;;;;;;;23.45;8.15;;;9.30;99.90;;;;;;5096574;28;20040;-79
2022/11/26 10:31:47;;;;;;;21.80;8.32;;;10.30;99.90;;;;;;5113206;28;20082;-79
2022/11/26 10:34:18;;;;;;;21.17;7.82;;;9.10;99.90;;;;;;5096773;28;20042;-79
2022/11/26 10:36:45;;;;;;;22.00;8.13;;;9.00;99.90;;;;;;5095348;28;20043;-79
2022/11/26 10:39:17;;;;;;;26.67;8.02;;;8.90;99.90;;;;;;5113173;27;20044;-78
2022/11/26 10:41:43;;;;;;;21.40;8.38;;;8.90;99.90;;;;;;5095377;28;20121;-78
2022/11/26 10:44:27;;;;;;;21.80;9.40;;;8.90;99.90;;;;;;5114817;28;20539;-79
2022/11/26 10:46:53;;;;;;;21.23;8.65;;;8.80;99.90;;;;;;5112600;28;20388;-79
2022/11/26 10:49:22;;;;;;;24.90;10.25;;;8.80;99.90;;;;;;5096810;28;20050;-78
2022/11/26 10:51:49;;;;;;;22.88;9.15;;;8.80;99.90;;;;;;5095720;28;20056;-78
2022/11/26 10:54:25;;;;;;;23.48;9.32;;;8.90;99.90;;;;;;5113915;28;20035;-78
2022/11/26 10:56:52;;;;;;;20.25;8.82;;;8.90;99.90;;;;;;5094463;28;20039;-78
2022/11/26 10:59:39;;;;;;;22.70;9.85;;;8.90;99.90;;;;;;5114288;28;20396;-79
2022/11/26 11:02:29;;;;;;;28.45;9.85;;;9.00;99.90;;;;;;5095986;28;20054;-78
2022/11/26 11:04:58;;;;;;;24.00;8.85;;;9.10;99.90;;;;;;5095904;28;20131;-78
2022/11/26 11:07:39;;;;;;;27.35;9.70;;;9.90;99.90;;;;;;5096268;28;20514;-78
2022/11/26 11:10:08;;;;;;;18.20;8.82;;;10.20;99.90;;;;;;5114358;28;20046;-79
2022/11/26 11:13:09;;;;;;;20.60;8.85;;;9.10;99.90;;;;;;5095839;28;20134;-78
2022/11/26 11:15:35;;;;;;;31.25;9.70;;;9.10;99.90;;;;;;5093533;27;20054;-78
2022/11/26 11:18:03;;;;;;;27.85;10.32;;;9.10;99.90;;;;;;5116370;27;20039;-78
2022/11/26 11:20:35;;;;;;;23.58;9.93;;;9.10;99.90;;;;;;5133333;27;20047;-78
2022/11/26 11:23:25;;;;;;;23.38;10.20;;;9.10;99.90;;;;;;5134519;27;20035;-78
2022/11/26 11:26:14;;;;;;;20.73;10.15;;;9.10;99.90;;;;;;5099170;27;20099;-79
2022/11/26 11:28:46;;;;;;;25.08;10.48;;;9.20;99.90;;;;;;5134668;27;20043;-79
2022/11/26 11:31:15;;;;;;;25.67;9.88;;;9.20;99.90;;;;;;5113653;27;20050;-78
2022/11/26 11:33:41;;;;;;;27.13;10.32;;;9.20;99.90;;;;;;5132917;27;20047;-79
2022/11/26 11:36:13;;;;;;;26.23;10.63;;;9.50;99.90;;;;;;5116117;27;20043;-78
2022/11/26 11:38:57;;;;;;;28.10;10.43;;;9.20;99.90;;;;;;5134327;27;20043;-79
2022/11/26 11:41:38;;;;;;;24.38;10.00;;;9.20;99.90;;;;;;5134110;27;20043;-78
2022/11/26 11:44:24;;;;;;;27.65;11.07;;;10.10;99.90;;;;;;5134270;27;20126;-79
2022/11/26 11:47:21;;;;;;;27.65;11.18;;;9.20;99.90;;;;;;5132649;27;20070;-79
2022/11/26 11:50:02;;;;;;;;;;;9.20;99.90;;;;;;5133668;27;20054;-79
2022/11/26 11:52:40;;;;;;;30.42;11.35;;;9.10;99.90;;;;;;5115656;27;19966;-78
2022/11/26 11:55:12;;;;;;;25.80;11.25;;;9.10;99.90;;;;;;5134080;27;20047;-78
2022/11/26 11:58:15;;;;;;;26.70;10.73;;;9.10;99.90;;;;;;5134114;27;20042;-79
2022/11/26 12:01:01;;;;;;;27.13;10.48;;;9.20;99.90;;;;;;5133783;27;20039;-79
2022/11/26 12:03:44;;;;;;;25.80;9.68;;;7.90;99.90;;;;;;5130978;27;20454;-78
2022/11/26 12:06:35;;;;;;;30.25;11.10;;;9.20;99.90;;;;;;5112972;28;20043;-78
2022/11/26 12:09:09;;;;;;;30.13;10.45;;;9.20;99.90;;;;;;5113701;28;20051;-78
2022/11/26 12:11:57;;;;;;;29.58;10.82;;;9.20;99.90;;;;;;5113064;28;20051;-79
2022/11/26 12:14:28;;;;;;;23.92;10.48;;;9.20;99.90;;;;;;5112918;28;20417;-79
2022/11/26 12:17:26;;;;;;;30.10;10.45;;;9.20;99.90;;;;;;5094704;28;20048;-78
2022/11/26 12:20:02;;;;;;;35.22;11.18;;;9.20;99.90;;;;;;5077153;28;20052;-78
2022/11/26 12:22:33;;;;;;;;;;;9.30;99.90;;;;;;5112762;28;20062;-79
2022/11/26 12:25:12;;;;;;;26.20;10.38;;;9.30;99.90;;;;;;5112570;28;20355;-79
2022/11/26 12:27:46;;;;;;;30.80;11.02;;;9.30;99.90;;;;;;5094924;28;20497;-78
2022/11/26 12:30:13;;;;;;;31.80;10.93;;;9.30;99.90;;;;;;5112863;28;20395;-79
2022/11/26 12:32:44;;;;;;;24.35;10.02;;;9.30;99.90;;;;;;5112817;28;20097;-78
2022/11/26 12:35:16;;;;;;;32.05;10.88;;;9.30;99.90;;;;;;5094544;28;20066;-79
2022/11/26 12:37:43;;;;;;;18.38;9.80;;;9.30;99.90;;;;;;5094731;28;20126;-78
2022/11/26 12:40:21;;;;;;;30.83;10.85;;;8.50;99.90;;;;;;5112514;28;20085;-79
2022/11/26 12:42:50;;;;;;;26.08;10.35;;;10.50;99.90;;;;;;5094653;28;20047;-79
2022/11/26 12:45:34;;;;;;;24.88;10.77;;;9.40;99.90;;;;;;5112771;28;20083;-78
2022/11/26 12:48:09;;;;;;;29.35;11.15;;;9.40;99.90;;;;;;5094710;28;20058;-78
2022/11/26 12:50:41;;;;;;;27.02;11.45;;;9.30;99.90;;;;;;5112489;28;20039;-79
2022/11/26 12:53:14;;;;;;;27.40;11.10;;;10.40;99.90;;;;;;5093397;28;20122;-78
2022/11/26 12:55:51;;;;;;;28.90;11.98;;;9.30;99.90;;;;;;5112885;28;20096;-78
2022/11/26 12:58:52;;;;;;;25.73;11.57;;;9.30;99.90;;;;;;5114390;28;20031;-78